Terminal Aerodrome Forecast
Issued by NWS Charleston, SC

Home | Current Version | Previous Version | Text Only | Print | Product List | Glossary On
Versions: 1 2 3 4 5 6 7 8 9 10 11 12 13 14 15 16 17 18 19 20 21 22
000
FTUS42 KCHS 121200 AAA
TAFSAV
TAF AMD
KSAV 121202Z 1212/1312 VRB06KT 6SM -SHRA VCTS SCT005 SCT015
      BKN040CB
      TEMPO 1212/1214 VRB15G20KT 2SM +TSRA BR BKN005 BKN015CB
     FM121400 VRB05KT P6SM VCTS SCT015 BKN040CB
      TEMPO 1214/1218 VRB15G20KT 3SM +TSRA SCT009 BKN015CB
     FM122100 13005KT P6SM SCT020 SCT080 BKN150
     FM130300 VRB03KT P6SM MIFG SCT015 BKN150=

USA.gov is the U.S. government's official web portal to all federal, state and local government web resources and services.